Time;durP1;ratioP1;P1;durP2;ratioP2;P2;SDS_P1;SDS_P2;PMS_P1;PMS_P2;Temp;Humidity;BMP_temperature;BMP_pressure;BME280_temperature;BME280_humidity;BME280_pressure;Samples;Min_cycle;Max_cycle;Signal;HPM_P1;HPM_P2
2021/01/16 00:00:36;;;;;;;14.50;11.45;;;;;;;17.29;16.95;94127.16;5075588;28;20044;-59
2021/01/16 00:03:11;;;;;;;15.50;11.32;;;;;;;16.87;17.17;94127.41;5075460;28;20060;-56
2021/01/16 00:05:39;;;;;;;16.55;12.23;;;;;;;17.03;17.10;94128.28;5074860;28;20052;-58
2021/01/16 00:08:11;;;;;;;14.98;11.73;;;;;;;16.98;17.04;94136.44;5075222;28;20060;-60
2021/01/16 00:10:42;;;;;;;13.70;11.00;;;;;;;16.93;17.30;94128.75;5075437;28;20044;-54
2021/01/16 00:13:14;;;;;;;16.88;12.68;;;;;;;16.61;17.21;94133.75;5071416;28;20044;-55
2021/01/16 00:15:42;;;;;;;20.92;15.73;;;;;;;16.79;16.98;94126.44;5075407;28;20051;-57
2021/01/16 00:18:11;;;;;;;21.27;15.07;;;;;;;16.90;16.73;94124.09;5072494;28;20040;-57
2021/01/16 00:20:41;;;;;;;22.05;14.50;;;;;;;16.97;17.05;94129.63;5075186;28;20036;-56
2021/01/16 00:23:09;;;;;;;21.92;13.55;;;;;;;17.17;16.98;94117.34;5074055;28;20049;-54
2021/01/16 00:25:36;;;;;;;15.90;11.55;;;;;;;17.02;16.77;94116.19;5075201;28;20375;-54
2021/01/16 00:28:05;;;;;;;12.15;9.32;;;;;;;17.38;16.41;94109.28;5072226;28;20138;-69
2021/01/16 00:30:34;;;;;;;10.52;8.40;;;;;;;17.20;16.13;94112.22;5075076;28;20044;-60
2021/01/16 00:33:02;;;;;;;8.50;7.45;;;;;;;16.96;15.90;94101.69;5074985;28;20055;-54
2021/01/16 00:35:32;;;;;;;8.60;7.05;;;;;;;17.37;15.83;94102.47;5072347;28;20049;-56
2021/01/16 00:38:00;;;;;;;9.85;7.28;;;;;;;17.52;15.56;94107.06;5074648;28;20055;-58
2021/01/16 00:40:27;;;;;;;8.10;6.88;;;;;;;17.39;15.67;94103.66;5074960;28;20049;-54
2021/01/16 00:42:55;;;;;;;8.50;7.32;;;;;;;17.50;15.37;94103.97;5075235;28;20052;-56
2021/01/16 00:45:23;;;;;;;9.52;7.20;;;;;;;17.18;15.52;94095.16;5075604;28;20526;-55
2021/01/16 00:47:51;;;;;;;11.02;8.52;;;;;;;17.38;15.17;94106.63;5075558;28;20063;-58
2021/01/16 00:50:20;;;;;;;8.75;7.20;;;;;;;16.87;15.32;94093.09;5075886;28;20055;-59
2021/01/16 00:52:56;;;;;;;9.80;7.25;;;;;;;17.50;15.13;94102.09;5075602;28;20053;-56
2021/01/16 00:55:25;;;;;;;7.63;6.43;;;;;;;17.41;15.05;94101.44;5074328;28;20362;-56
2021/01/16 00:57:53;;;;;;;8.70;6.85;;;;;;;17.45;15.15;94091.78;5074941;28;20045;-56
2021/01/16 01:00:25;;;;;;;9.00;7.20;;;;;;;17.67;14.86;94092.34;5074110;28;20050;-57
2021/01/16 01:02:54;;;;;;;7.53;6.25;;;;;;;17.53;14.83;94082.94;5074087;28;20052;-56
2021/01/16 01:05:22;;;;;;;8.15;6.13;;;;;;;17.60;14.66;94087.63;5075291;28;20052;-58
2021/01/16 01:07:51;;;;;;;10.57;7.10;;;;;;;17.27;15.19;94091.28;5074939;28;20051;-58
2021/01/16 01:10:45;;;;;;;9.88;7.78;;;;;;;17.57;14.96;94083.03;5075218;28;20049;-56
2021/01/16 01:13:13;;;;;;;9.38;7.38;;;;;;;17.46;15.16;94095.97;5074818;28;20048;-56
2021/01/16 01:15:41;;;;;;;8.77;6.97;;;;;;;17.60;15.16;94082.34;5075226;28;20045;-56
2021/01/16 01:18:08;;;;;;;9.65;7.50;;;;;;;17.67;15.16;94087.06;5074934;28;20048;-58
2021/01/16 01:20:35;;;;;;;9.75;7.68;;;;;;;17.58;15.13;94084.56;5074989;28;20044;-60
2021/01/16 01:23:03;;;;;;;8.95;7.50;;;;;;;17.36;15.65;94087.72;5074694;28;20048;-57
2021/01/16 01:25:31;;;;;;;7.25;6.05;;;;;;;17.42;15.07;94087.13;5075132;28;20056;-57
2021/01/16 01:28:00;;;;;;;8.75;6.35;;;;;;;17.51;15.12;94095.72;5074758;28;20698;-58
2021/01/16 01:30:29;;;;;;;6.38;5.70;;;;;;;17.69;14.85;94084.88;5074958;28;20359;-56
2021/01/16 01:32:58;;;;;;;6.25;5.43;;;;;;;17.56;14.68;94086.78;5074850;28;20056;-56
2021/01/16 01:35:27;;;;;;;7.32;5.97;;;;;;;17.60;14.98;94082.34;5075079;28;20340;-59
2021/01/16 01:37:56;;;;;;;7.10;5.65;;;;;;;17.74;14.92;94077.47;5074683;28;20048;-58
2021/01/16 01:40:26;;;;;;;6.95;5.60;;;;;;;17.64;15.02;94083.22;5074905;28;20327;-63
2021/01/16 01:42:54;;;;;;;7.80;5.97;;;;;;;17.65;15.00;94078.69;5074929;28;20055;-70
2021/01/16 01:45:23;;;;;;;7.65;6.25;;;;;;;17.65;14.99;94084.75;5074930;28;20051;-68
2021/01/16 01:47:50;;;;;;;7.95;6.03;;;;;;;17.65;15.02;94074.19;5074078;28;20044;-63
2021/01/16 01:50:19;;;;;;;7.32;5.82;;;;;;;17.31;15.35;94070.22;5077073;28;20358;-68
2021/01/16 01:52:46;;;;;;;5.28;4.47;;;;;;;17.65;15.19;94068.13;5078414;28;20083;-63
2021/01/16 01:55:15;;;;;;;4.85;4.15;;;;;;;17.66;15.24;94061.72;5077638;28;20052;-68
2021/01/16 01:57:50;;;;;;;5.10;4.35;;;;;;;17.55;15.08;94066.75;5078530;28;20048;-56
2021/01/16 02:00:18;;;;;;;5.28;4.57;;;;;;;17.74;14.70;94061.63;5078054;28;20391;-56
2021/01/16 02:02:47;;;;;;;5.32;4.65;;;;;;;17.46;15.23;94066.13;5078291;28;20048;-58
2021/01/16 02:05:15;;;;;;;6.70;5.28;;;;;;;17.50;15.21;94064.34;5078258;28;20056;-58
2021/01/16 02:07:42;;;;;;;5.22;4.50;;;;;;;17.35;15.23;94065.81;5078335;28;20049;-57
2021/01/16 02:10:12;;;;;;;5.00;4.25;;;;;;;17.75;14.82;94068.44;5076683;28;20362;-57
2021/01/16 02:12:40;;;;;;;5.18;4.15;;;;;;;17.47;15.08;94059.72;5078267;28;20462;-56
2021/01/16 02:15:38;;;;;;;5.40;4.15;;;;;;;17.56;15.02;94060.34;5078118;28;20048;-59
2021/01/16 02:18:10;;;;;;;5.10;4.30;;;;;;;17.73;14.75;94060.09;5077251;28;20052;-56
2021/01/16 02:20:37;;;;;;;5.20;4.03;;;;;;;17.56;15.10;94060.34;5077434;28;20684;-66
2021/01/16 02:23:10;;;;;;;5.22;4.00;;;;;;;17.45;15.15;94059.31;5075539;28;20052;-59
2021/01/16 02:25:40;;;;;;;5.25;4.07;;;;;;;17.60;15.02;94055.16;5077227;28;20055;-69
2021/01/16 02:28:22;;;;;;;4.43;3.70;;;;;;;17.91;14.74;94057.13;5077759;28;20052;-56
2021/01/16 02:30:50;;;;;;;4.70;3.95;;;;;;;17.68;14.96;94047.09;5076685;28;20048;-56
2021/01/16 02:33:19;;;;;;;4.85;3.97;;;;;;;17.47;15.24;94052.56;5076811;28;20052;-55
2021/01/16 02:36:06;;;;;;;4.82;3.90;;;;;;;17.67;15.40;94053.47;5076541;28;20051;-54
2021/01/16 02:38:43;;;;;;;5.30;4.15;;;;;;;17.67;15.42;94056.13;5077681;28;20044;-57
2021/01/16 02:41:38;;;;;;;5.40;4.43;;;;;;;17.49;15.80;94057.53;5076635;28;20473;-66
2021/01/16 02:44:31;;;;;;;5.38;4.63;;;;;;;17.58;15.87;94050.19;5077539;28;20049;-70
2021/01/16 02:47:23;;;;;;;5.68;4.80;;;;;;;17.50;15.75;94056.41;5077890;28;20060;-57
2021/01/16 02:49:59;;;;;;;5.67;4.70;;;;;;;17.55;15.87;94051.66;5077664;28;20056;-68
2021/01/16 02:52:28;;;;;;;6.10;5.30;;;;;;;17.55;15.82;94054.28;5077428;28;20282;-63
2021/01/16 02:54:56;;;;;;;5.95;5.35;;;;;;;17.43;16.14;94045.63;5076208;28;20051;-69
2021/01/16 02:57:24;;;;;;;6.10;5.30;;;;;;;17.47;16.11;94046.50;5077364;28;20048;-57
2021/01/16 02:59:52;;;;;;;6.07;5.47;;;;;;;17.48;16.21;94045.41;5077144;28;20051;-69
2021/01/16 03:02:19;;;;;;;7.53;5.72;;;;;;;17.62;16.34;94051.06;5077231;28;20122;-69
2021/01/16 03:04:46;;;;;;;7.85;6.32;;;;;;;17.72;16.09;94047.97;5077292;28;20056;-64
2021/01/16 03:07:18;;;;;;;7.30;5.75;;;;;;;17.42;16.59;94044.09;5077425;28;20055;-65
2021/01/16 03:09:45;;;;;;;7.40;6.25;;;;;;;17.43;16.58;94043.75;5077379;28;20051;-59
2021/01/16 03:12:12;;;;;;;6.85;6.10;;;;;;;17.36;16.80;94048.84;5077472;28;20055;-68
2021/01/16 03:14:51;;;;;;;7.63;6.32;;;;;;;17.58;16.51;94053.63;5077056;28;20048;-59
2021/01/16 03:17:19;;;;;;;6.88;6.18;;;;;;;17.27;16.87;94056.16;5077237;28;20056;-57
2021/01/16 03:19:47;;;;;;;7.55;6.15;;;;;;;17.49;16.65;94044.31;5075704;28;20055;-62
2021/01/16 03:22:18;;;;;;;6.85;6.07;;;;;;;17.67;16.48;94045.56;5076770;28;20045;-68
2021/01/16 03:24:47;;;;;;;7.05;6.03;;;;;;;17.49;16.57;94049.59;5075704;28;20053;-58
2021/01/16 03:27:15;;;;;;;7.13;5.82;;;;;;;17.75;16.32;94034.06;5076803;28;20056;-67
2021/01/16 03:29:42;;;;;;;6.80;6.10;;;;;;;17.53;16.65;94045.16;5076465;28;20055;-57
2021/01/16 03:32:10;;;;;;;7.20;6.07;;;;;;;17.57;16.53;94046.03;5076680;28;20055;-57
2021/01/16 03:34:38;;;;;;;8.13;6.55;;;;;;;17.74;16.50;94045.75;5076370;28;20040;-55
2021/01/16 03:37:06;;;;;;;8.25;6.65;;;;;;;17.78;16.29;94046.63;5076456;28;20473;-68
2021/01/16 03:39:34;;;;;;;7.10;6.40;;;;;;;17.49;16.67;94036.38;5076530;28;20431;-69
2021/01/16 03:42:01;;;;;;;6.93;6.22;;;;;;;17.56;16.43;94055.06;5076584;28;20054;-59
2021/01/16 03:44:28;;;;;;;6.78;6.07;;;;;;;17.68;16.41;94048.97;5076092;28;20051;-56
2021/01/16 03:46:55;;;;;;;7.60;6.18;;;;;;;17.53;16.58;94050.44;5076352;28;20040;-61
2021/01/16 03:49:23;;;;;;;7.65;6.47;;;;;;;17.27;16.88;94046.34;5076231;28;20048;-58
2021/01/16 03:51:51;;;;;;;7.63;6.75;;;;;;;17.22;17.11;94051.88;5075904;28;20052;-54
2021/01/16 03:54:18;;;;;;;7.60;6.35;;;;;;;17.50;16.62;94048.47;5075940;28;20474;-56
2021/01/16 03:56:45;;;;;;;7.15;6.30;;;;;;;17.53;16.57;94045.94;5076292;28;20052;-56
2021/01/16 03:59:12;;;;;;;7.25;6.55;;;;;;;17.39;16.55;94050.06;5076165;28;20115;-68
2021/01/16 04:01:39;;;;;;;8.20;6.35;;;;;;;17.76;16.20;94048.84;5076132;28;20049;-68
2021/01/16 04:04:06;;;;;;;7.10;6.35;;;;;;;17.61;16.48;94051.41;5075184;28;20056;-56
2021/01/16 04:06:33;;;;;;;7.35;6.20;;;;;;;17.59;16.33;94038.53;5075801;28;20051;-59
2021/01/16 04:09:01;;;;;;;9.38;6.88;;;;;;;17.45;16.31;94040.81;5075780;28;20371;-59
2021/01/16 04:11:29;;;;;;;7.80;7.00;;;;;;;17.50;16.54;94051.13;5075624;28;20079;-57
2021/01/16 04:13:56;;;;;;;7.18;6.30;;;;;;;17.34;16.61;94050.28;5075723;28;20051;-59
2021/01/16 04:16:27;;;;;;;9.10;6.53;;;;;;;17.44;16.53;94047.19;5075651;28;20045;-57
2021/01/16 04:18:55;;;;;;;8.05;6.82;;;;;;;17.39;16.47;94044.75;5075600;28;20059;-60
2021/01/16 04:21:23;;;;;;;8.70;6.80;;;;;;;17.54;16.35;94046.69;5075455;28;20055;-56
2021/01/16 04:23:50;;;;;;;9.07;6.63;;;;;;;17.24;16.50;94049.69;5075714;28;20056;-56
2021/01/16 04:26:18;;;;;;;7.75;6.60;;;;;;;17.32;16.51;94039.28;5075544;28;20040;-57
2021/01/16 04:28:45;;;;;;;9.32;6.63;;;;;;;17.55;16.20;94042.94;5075667;28;20048;-55
2021/01/16 04:31:12;;;;;;;7.60;6.80;;;;;;;17.19;16.70;94036.72;5075436;28;20063;-56
2021/01/16 04:33:39;;;;;;;9.60;7.57;;;;;;;17.38;16.41;94045.88;5075847;28;20044;-66
2021/01/16 04:36:06;;;;;;;9.18;7.20;;;;;;;17.52;16.04;94043.63;5075366;28;20359;-58
2021/01/16 04:38:37;;;;;;;9.27;7.30;;;;;;;17.72;15.85;94044.56;5075686;28;20362;-57
2021/01/16 04:41:04;;;;;;;8.45;7.18;;;;;;;17.53;15.82;94050.44;5075423;28;20455;-65
2021/01/16 04:43:32;;;;;;;7.88;6.80;;;;;;;17.40;15.98;94046.31;5084882;28;20050;-55
2021/01/16 04:46:07;;;;;;;8.55;7.65;;;;;;;17.29;16.18;94048.66;5097866;28;20047;-67
2021/01/16 04:48:35;;;;;;;8.93;8.00;;;;;;;17.53;16.07;94053.09;5116161;28;20051;-68
2021/01/16 04:51:05;;;;;;;9.90;8.45;;;;;;;17.43;16.13;94050.91;5131339;27;20103;-67
2021/01/16 04:53:37;;;;;;;10.75;8.35;;;;;;;17.58;15.87;94052.84;5116101;28;20480;-68
2021/01/16 04:56:05;;;;;;;9.02;8.07;;;;;;;17.61;15.87;94044.25;5115714;28;20040;-68
2021/01/16 04:58:38;;;;;;;8.55;7.13;;;;;;;17.71;15.83;94043.81;5115956;28;20048;-61
2021/01/16 05:01:08;;;;;;;8.90;7.60;;;;;;;17.29;16.14;94045.25;5115724;28;20052;-56
2021/01/16 05:03:37;;;;;;;8.80;7.63;;;;;;;17.57;15.91;94051.31;5115952;28;20054;-54
2021/01/16 05:06:08;;;;;;;9.30;7.82;;;;;;;17.40;16.18;94062.16;5115379;28;20070;-62
2021/01/16 05:08:39;;;;;;;8.73;7.43;;;;;;;17.40;16.05;94056.88;5115682;28;20043;-56
2021/01/16 05:11:25;;;;;;;8.68;7.35;;;;;;;17.25;16.03;94056.50;5115509;28;20427;-55
2021/01/16 05:14:11;;;;;;;10.02;8.30;;;;;;;17.46;15.88;94066.13;5115686;28;20453;-56
2021/01/16 05:16:51;;;;;;;9.18;7.97;;;;;;;17.47;15.88;94059.72;5115288;28;20442;-59
2021/01/16 05:19:31;;;;;;;8.88;7.97;;;;;;;17.34;16.04;94058.22;5097118;28;20042;-56
2021/01/16 05:21:58;;;;;;;10.35;8.07;;;;;;;17.35;15.83;94062.41;5097479;28;20043;-55
2021/01/16 05:24:26;;;;;;;10.93;8.15;;;;;;;17.33;15.66;94061.97;5098925;28;20055;-57
2021/01/16 05:27:00;;;;;;;9.52;8.07;;;;;;;17.11;15.83;94064.00;5099873;28;20058;-58
2021/01/16 05:29:29;;;;;;;8.88;7.80;;;;;;;17.14;15.91;94063.31;5099221;28;20362;-56
2021/01/16 05:31:58;;;;;;;9.50;7.85;;;;;;;17.02;15.91;94058.09;5119525;28;20050;-54
2021/01/16 05:34:26;;;;;;;9.48;7.82;;;;;;;17.34;15.76;94072.19;5119485;28;20054;-55
2021/01/16 05:36:54;;;;;;;10.52;8.35;;;;;;;16.88;15.97;94068.22;5119177;28;20055;-57
2021/01/16 05:39:24;;;;;;;9.30;8.30;;;;;;;17.40;15.51;94056.88;5084329;28;20055;-69
2021/01/16 05:41:55;;;;;;;9.35;8.13;;;;;;;17.23;15.40;94064.00;5113088;28;20047;-69
2021/01/16 05:44:23;;;;;;;9.93;8.00;;;;;;;16.92;15.75;94063.84;5098853;28;20055;-58
2021/01/16 05:46:50;;;;;;;8.70;7.60;;;;;;;16.97;15.69;94060.19;5116982;28;20055;-67
2021/01/16 05:49:22;;;;;;;9.32;7.78;;;;;;;16.99;15.64;94058.75;5101335;28;20074;-58
2021/01/16 05:51:50;;;;;;;9.57;7.55;;;;;;;17.09;15.23;94065.44;5119095;28;20051;-61
2021/01/16 05:54:18;;;;;;;9.18;8.02;;;;;;;17.12;15.45;94062.91;5119259;28;20047;-58
2021/01/16 05:56:47;;;;;;;8.93;7.47;;;;;;;17.09;15.44;94058.28;5118932;28;20055;-57
2021/01/16 05:59:19;;;;;;;9.18;7.90;;;;;;;17.38;15.08;94054.56;5118962;28;20054;-56
2021/01/16 06:01:48;;;;;;;10.13;7.85;;;;;;;17.04;15.33;94058.53;5119033;28;20054;-56
2021/01/16 06:04:19;;;;;;;8.73;7.70;;;;;;;17.16;15.23;94052.44;5101012;28;20043;-60
2021/01/16 06:06:47;;;;;;;9.00;7.10;;;;;;;17.13;14.91;94048.59;5100797;28;20078;-65
2021/01/16 06:09:20;;;;;;;8.45;7.18;;;;;;;17.23;14.86;94057.94;5118980;28;20082;-71
2021/01/16 06:11:49;;;;;;;10.32;8.13;;;;;;;17.21;14.97;94063.56;5101215;28;20043;-59
2021/01/16 06:14:17;;;;;;;9.00;7.80;;;;;;;17.26;15.00;94057.25;5119005;28;20047;-64
2021/01/16 06:16:53;;;;;;;9.48;8.18;;;;;;;17.41;14.98;94053.13;5100399;28;20054;-63
2021/01/16 06:19:25;;;;;;;9.65;7.80;;;;;;;17.18;15.25;94052.88;5100749;28;20361;-68
2021/01/16 06:21:53;;;;;;;10.55;8.43;;;;;;;17.49;14.61;94054.88;5118015;28;20082;-58
2021/01/16 06:24:22;;;;;;;9.88;8.07;;;;;;;17.36;14.56;94061.28;5117927;28;20504;-68
2021/01/16 06:26:57;;;;;;;8.95;7.50;;;;;;;17.09;14.99;94060.16;5114156;28;20047;-68
2021/01/16 06:29:35;;;;;;;8.45;7.30;;;;;;;17.27;14.84;94059.56;5117989;28;20051;-67
2021/01/16 06:32:07;;;;;;;8.50;7.60;;;;;;;17.11;14.88;94066.66;5103710;28;20056;-55
2021/01/16 06:34:43;;;;;;;10.50;8.43;;;;;;;17.26;14.89;94073.88;5097217;28;20048;-56
2021/01/16 06:37:15;;;;;;;12.98;10.05;;;;;;;17.34;14.85;94082.00;5121425;27;20047;-55
2021/01/16 06:39:44;;;;;;;12.48;10.82;;;;;;;17.19;15.00;94083.47;5097264;28;20056;-59
2021/01/16 06:42:20;;;;;;;10.65;8.75;;;;;;;17.09;14.82;94084.69;5092596;28;20054;-56
2021/01/16 06:44:47;;;;;;;9.75;7.80;;;;;;;17.44;14.39;94079.66;5103158;28;20040;-56
2021/01/16 06:47:14;;;;;;;11.45;7.97;;;;;;;17.40;14.46;94083.28;5097735;28;20051;-60
2021/01/16 06:49:44;;;;;;;9.90;8.02;;;;;;;17.17;15.06;94081.16;5097681;28;20047;-67
2021/01/16 06:52:11;;;;;;;10.18;8.52;;;;;;;17.10;14.66;94075.66;5135613;27;20393;-68
2021/01/16 06:54:39;;;;;;;10.02;8.63;;;;;;;17.09;14.40;94087.34;5118341;28;20081;-68
2021/01/16 06:57:08;;;;;;;11.68;9.02;;;;;;;17.09;14.57;94095.25;5100260;28;20047;-61
2021/01/16 06:59:36;;;;;;;10.05;8.18;;;;;;;17.40;14.04;94083.28;5118001;28;20047;-66
2021/01/16 07:02:26;;;;;;;9.30;6.70;;;;;;;17.38;14.00;94080.22;5117481;28;20054;-58
2021/01/16 07:05:03;;;;;;;9.82;6.90;;;;;;;17.40;13.85;94078.00;5104419;28;20048;-58
2021/01/16 07:07:36;;;;;;;9.27;7.43;;;;;;;17.16;14.17;94084.91;5115198;28;20046;-59
2021/01/16 07:10:09;;;;;;;7.97;6.82;;;;;;;17.29;14.09;94076.97;5111233;28;20052;-57
2021/01/16 07:12:37;;;;;;;8.75;7.60;;;;;;;17.36;14.03;94083.19;5097406;28;20044;-57
2021/01/16 07:15:05;;;;;;;9.70;7.63;;;;;;;17.37;14.07;94090.03;5096986;28;20051;-57
2021/01/16 07:17:32;;;;;;;10.80;8.55;;;;;;;17.54;14.24;94081.06;5103663;28;20054;-59
2021/01/16 07:20:00;;;;;;;8.73;7.70;;;;;;;17.40;14.40;94088.59;5117422;28;20055;-56
2021/01/16 07:22:33;;;;;;;10.05;7.88;;;;;;;17.42;14.53;94094.28;5117290;28;20055;-56
2021/01/16 07:25:03;;;;;;;9.45;7.50;;;;;;;17.42;14.58;94091.66;5116582;28;20050;-55
2021/01/16 07:27:30;;;;;;;10.07;8.25;;;;;;;17.23;14.78;94085.13;5117121;28;20074;-61
2021/01/16 07:30:18;;;;;;;11.68;8.93;;;;;;;17.40;14.72;94088.59;5082624;28;20462;-62
2021/01/16 07:32:47;;;;;;;12.80;9.38;;;;;;;17.00;15.03;94086.69;5097574;28;20052;-57
2021/01/16 07:35:19;;;;;;;11.07;8.70;;;;;;;17.19;15.05;94088.75;5096904;28;20052;-67
2021/01/16 07:37:48;;;;;;;11.27;9.25;;;;;;;16.98;15.28;94093.41;5104541;28;20054;-62
2021/01/16 07:40:16;;;;;;;10.90;9.02;;;;;;;17.30;15.24;94089.06;5117154;28;20050;-57
2021/01/16 07:43:01;;;;;;;9.88;8.55;;;;;;;17.21;15.22;94089.19;5115522;28;20048;-59
2021/01/16 07:45:31;;;;;;;12.52;9.38;;;;;;;17.24;15.22;94091.16;5109190;28;20438;-60
2021/01/16 07:48:01;;;;;;;11.35;9.15;;;;;;;17.01;15.58;94090.88;5104856;28;20058;-51
2021/01/16 07:50:30;;;;;;;11.77;9.18;;;;;;;17.42;15.16;94092.41;5114459;28;20043;-67
2021/01/16 07:52:58;;;;;;;13.65;10.90;;;;;;;-144.01;100.00;62166.59;5115233;28;20050;-55
2021/01/16 07:55:38;;;;;;;12.90;10.23;;;;;;;-144.01;100.00;62166.59;5116068;28;20078;-55
2021/01/16 07:58:17;;;;;;;21.80;8.60;;;;;;;-144.01;100.00;62166.59;5107038;27;20047;-57
2021/01/16 08:01:09;;;;;;;12.23;8.25;;;;;;;-144.01;100.00;62166.59;5096052;28;20051;-69
2021/01/16 08:03:45;;;;;;;9.48;8.18;;;;;;;-144.01;100.00;62166.59;5096529;28;20056;-64
2021/01/16 08:06:54;;;;;;;12.60;9.05;;;;;;;-144.01;100.00;62166.59;5118125;28;20047;-62
2021/01/16 08:09:28;;;;;;;10.80;8.70;;;;;;;-144.01;100.00;62166.59;5117514;28;20043;-56
2021/01/16 08:11:57;;;;;;;10.70;8.32;;;;;;;-144.01;100.00;62166.59;5098668;28;20047;-67
2021/01/16 08:14:24;;;;;;;11.93;8.25;;;;;;;-144.01;100.00;62166.59;5098454;28;20068;-70
2021/01/16 08:16:58;;;;;;;10.35;8.02;;;;;;;-144.01;100.00;62166.59;5116110;28;20039;-68
2021/01/16 08:19:31;;;;;;;11.40;8.73;;;;;;;-144.01;100.00;62166.59;5098181;28;20043;-69
2021/01/16 08:21:59;;;;;;;11.80;8.68;;;;;;;-144.01;100.00;62166.59;5105672;28;20458;-68
2021/01/16 08:24:28;;;;;;;11.57;9.20;;;;;;;-144.01;100.00;62166.59;5116347;28;20058;-66
2021/01/16 08:27:00;;;;;;;13.13;9.95;;;;;;;-144.01;100.00;62166.59;5114684;28;20074;-66
2021/01/16 08:29:28;;;;;;;11.73;9.35;;;;;;;-144.01;100.00;62166.59;5115803;28;20047;-67
2021/01/16 08:32:09;;;;;;;12.05;9.50;;;;;;;-144.01;100.00;62166.59;5116331;28;20401;-67
2021/01/16 08:34:59;;;;;;;11.32;9.10;;;;;;;-144.01;100.00;62166.59;5116233;28;20043;-68
2021/01/16 08:37:37;;;;;;;9.77;8.55;;;;;;;-144.01;100.00;62166.59;5116153;28;20039;-64
2021/01/16 08:40:09;;;;;;;11.80;8.85;;;;;;;-144.01;100.00;62166.59;5115617;28;20047;-67
2021/01/16 08:42:53;;;;;;;10.25;7.82;;;;;;;-144.01;100.00;62166.59;5116219;28;20059;-68
2021/01/16 08:45:21;;;;;;;9.95;7.60;;;;;;;-144.01;100.00;62166.59;5116009;28;20047;-67
2021/01/16 08:47:58;;;;;;;10.00;8.55;;;;;;;-144.01;100.00;62166.59;5116064;28;20039;-68
2021/01/16 08:50:34;;;;;;;9.75;8.13;;;;;;;-144.01;100.00;62166.59;5115543;28;20043;-68
2021/01/16 08:53:21;;;;;;;15.15;7.68;;;;;;;-144.01;100.00;62166.59;5115636;28;20051;-67
2021/01/16 08:55:48;;;;;;;8.95;6.95;;;;;;;-144.01;100.00;62166.59;5113104;28;20047;-65
2021/01/16 08:58:15;;;;;;;11.18;7.53;;;;;;;-144.01;100.00;62166.59;5095755;28;20480;-68
2021/01/16 09:00:43;;;;;;;21.10;7.40;;;;;;;-144.01;100.00;62166.59;5098373;28;20048;-67
2021/01/16 09:03:12;;;;;;;9.98;5.80;;;;;;;-144.01;100.00;62166.59;5111455;28;20048;-68
2021/01/16 09:05:40;;;;;;;11.77;5.53;;;;;;;-144.01;100.00;62166.59;5095362;28;20051;-67
2021/01/16 09:08:24;;;;;;;8.57;5.75;;;;;;;-144.01;100.00;62166.59;5095307;28;20040;-67
2021/01/16 09:10:52;;;;;;;11.93;6.43;;;;;;;-144.01;100.00;62166.59;5095545;28;20051;-67
2021/01/16 09:13:27;;;;;;;11.25;6.82;;;;;;;-144.01;100.00;62166.59;5095408;28;20052;-67
2021/01/16 09:15:56;;;;;;;8.65;6.50;;;;;;;-144.01;100.00;62166.59;5095289;28;20040;-68
2021/01/16 09:18:23;;;;;;;8.52;7.05;;;;;;;-144.01;100.00;62166.59;5096110;28;20048;-67
2021/01/16 09:20:54;;;;;;;11.65;7.30;;;;;;;-144.01;100.00;62166.59;5097564;28;20051;-68
2021/01/16 09:23:22;;;;;;;9.45;6.13;;;;;;;-144.01;100.00;62166.59;5115844;28;20055;-68
2021/01/16 09:25:50;;;;;;;9.50;6.32;;;;;;;-144.01;100.00;62166.59;5115547;28;20040;-67
2021/01/16 09:28:37;;;;;;;7.03;6.00;;;;;;;-144.01;100.00;62166.59;5115332;28;20048;-66
2021/01/16 09:31:40;;;;;;;9.82;6.50;;;;;;;-144.01;100.00;62166.59;5098693;28;20055;-73
2021/01/16 09:34:13;;;;;;;9.65;6.88;;;;;;;-144.01;100.00;62166.59;5097264;28;20063;-66
2021/01/16 09:36:50;;;;;;;8.77;6.90;;;;;;;-144.01;100.00;62166.59;5095247;28;20051;-72
2021/01/16 09:39:31;;;;;;;8.77;6.25;;;;;;;-144.01;100.00;62166.59;5102929;28;20323;-65
2021/01/16 09:42:19;;;;;;;9.90;6.90;;;;;;;-144.01;100.00;62166.59;5097628;28;20054;-68
2021/01/16 09:44:50;;;;;;;8.27;6.72;;;;;;;-144.01;100.00;62166.59;5115477;28;20070;-67
2021/01/16 09:47:26;;;;;;;6.55;5.63;;;;;;;-144.01;100.00;62166.59;5115358;28;20043;-68
2021/01/16 09:50:03;;;;;;;9.30;5.60;;;;;;;-144.01;100.00;62166.59;5115082;28;20040;-68
2021/01/16 09:52:31;;;;;;;12.63;6.55;;;;;;;-144.01;100.00;62166.59;5114954;28;20493;-68
2021/01/16 09:54:58;;;;;;;7.90;6.18;;;;;;;-144.01;100.00;62166.59;5115367;28;20070;-65
2021/01/16 09:57:35;;;;;;;7.03;5.60;;;;;;;-144.01;100.00;62166.59;5107084;28;20040;-67
2021/01/16 10:00:15;;;;;;;8.40;5.82;;;;;;;-144.01;100.00;62166.59;5108443;28;20062;-67
2021/01/16 10:02:46;;;;;;;8.02;6.10;;;;;;;-144.01;100.00;62166.59;5115265;28;20056;-69
2021/01/16 10:05:15;;;;;;;8.52;5.97;;;;;;;-144.01;100.00;62166.59;5115725;28;20048;-68
2021/01/16 10:07:43;;;;;;;8.75;5.53;;;;;;;-144.01;100.00;62166.59;5115237;28;20117;-67
2021/01/16 10:10:20;;;;;;;11.70;5.93;;;;;;;-144.01;100.00;62166.59;5115407;28;20051;-68
2021/01/16 10:12:48;;;;;;;9.80;4.97;;;;;;;-144.01;100.00;62166.59;5118007;28;20055;-67
2021/01/16 10:15:17;;;;;;;7.18;5.25;;;;;;;-144.01;100.00;62166.59;5097524;28;20052;-67
2021/01/16 10:17:54;;;;;;;11.57;5.32;;;;;;;-144.01;100.00;62166.59;5085154;28;20049;-68
2021/01/16 10:20:30;;;;;;;6.13;5.03;;;;;;;-144.01;100.00;62166.59;5093671;28;20355;-68
2021/01/16 10:22:59;;;;;;;9.45;5.32;;;;;;;-144.01;100.00;62166.59;5097177;28;20051;-68
2021/01/16 10:25:42;;;;;;;6.90;4.85;;;;;;;-144.01;100.00;62166.59;5077696;28;20048;-67
2021/01/16 10:28:26;;;;;;;8.38;5.30;;;;;;;-144.01;100.00;62166.59;5077985;28;20056;-69
2021/01/16 10:31:05;;;;;;;7.53;4.93;;;;;;;-144.01;100.00;62166.59;5097730;28;20054;-68
2021/01/16 10:33:39;;;;;;;7.95;4.53;;;;;;;-144.01;100.00;62166.59;5085386;28;20049;-68
2021/01/16 10:36:11;;;;;;;13.52;4.53;;;;;;;-144.01;100.00;62166.59;5069454;28;20043;-67
2021/01/16 10:38:46;;;;;;;13.23;4.95;;;;;;;-144.01;100.00;62166.59;5078473;28;20044;-68
2021/01/16 10:41:15;;;;;;;11.07;4.45;;;;;;;-144.01;100.00;62166.59;5131003;27;20051;-65
2021/01/16 10:43:43;;;;;;;5.75;4.05;;;;;;;-144.01;100.00;62166.59;5093346;28;20048;-68
2021/01/16 10:46:22;;;;;;;5.40;4.28;;;;;;;-144.01;100.00;62166.59;5077388;28;20055;-70
2021/01/16 10:48:49;;;;;;;5.30;3.97;;;;;;;-144.01;100.00;62166.59;5082304;28;20048;-68
2021/01/16 10:51:23;;;;;;;8.85;4.15;;;;;;;-144.01;100.00;62166.59;5102292;28;20052;-64
2021/01/16 10:53:57;;;;;;;16.73;4.65;;;;;;;-144.01;100.00;62166.59;5099479;28;20047;-69
2021/01/16 10:56:26;;;;;;;5.97;3.85;;;;;;;-144.01;100.00;62166.59;5097591;28;20046;-69
2021/01/16 10:59:08;;;;;;;7.15;4.03;;;;;;;-144.01;100.00;62166.59;5079504;28;20477;-69
2021/01/16 11:01:45;;;;;;;5.33;3.60;;;;;;;-144.01;100.00;62166.59;5097552;28;20048;-69
2021/01/16 11:04:21;;;;;;;5.00;3.45;;;;;;;-144.01;100.00;62166.59;5097774;28;20074;-69
2021/01/16 11:06:55;;;;;;;4.32;3.58;;;;;;;-144.01;100.00;62166.59;5086772;28;20059;-69
2021/01/16 11:10:02;;;;;;;4.72;3.67;;;;;;;-144.01;100.00;62166.59;5082000;28;20048;-69
2021/01/16 11:12:29;;;;;;;7.38;3.30;;;;;;;-144.01;100.00;62166.59;5069403;28;20080;-69
2021/01/16 11:14:56;;;;;;;7.25;3.92;;;;;;;-144.01;100.00;62166.59;5077094;28;20052;-67
2021/01/16 11:17:47;;;;;;;6.50;4.53;;;;;;;-144.01;100.00;62166.59;5076918;28;20477;-67
2021/01/16 11:20:20;;;;;;;7.95;4.60;;;;;;;-144.01;100.00;62166.59;5088583;28;20056;-62
2021/01/16 11:23:18;;;;;;;6.25;4.30;;;;;;;-144.01;100.00;62166.59;5114472;28;20036;-70
2021/01/16 11:25:47;;;;;;;6.25;4.18;;;;;;;-144.01;100.00;62166.59;5041222;28;20047;-66
2021/01/16 11:28:21;;;;;;;6.47;3.78;;;;;;;-144.01;100.00;62166.59;5084150;28;20049;-68
2021/01/16 11:30:49;;;;;;;5.63;4.15;;;;;;;-144.01;100.00;62166.59;5094037;28;20048;-67
2021/01/16 11:33:25;;;;;;;7.95;4.10;;;;;;;-144.01;100.00;62166.59;5096934;28;20051;-58
2021/01/16 11:36:14;;;;;;;6.78;4.55;;;;;;;-144.01;100.00;62166.59;5078051;28;20040;-65
2021/01/16 11:38:46;;;;;;;9.55;6.05;;;;;;;-144.01;100.00;62166.59;5076443;28;20071;-70
2021/01/16 11:41:14;;;;;;;5.80;4.00;;;;;;;-144.01;100.00;62166.59;5081857;28;20459;-66
2021/01/16 11:43:41;;;;;;;6.47;4.13;;;;;;;-144.01;100.00;62166.59;5075740;28;20048;-62